createdAt,value
2019-05-03T00:00:57.846Z,30.90
2019-05-03T00:03:28.476Z,30.90
2019-05-03T00:06:05.926Z,31.00
2019-05-03T00:08:37.069Z,31.00
2019-05-03T00:11:07.768Z,31.00
2019-05-03T00:13:38.160Z,31.00
2019-05-03T00:16:13.097Z,31.00
2019-05-03T00:18:43.480Z,31.00
2019-05-03T00:21:17.830Z,31.00
2019-05-03T00:23:48.290Z,31.00
2019-05-03T00:26:18.795Z,31.00
2019-05-03T00:28:49.183Z,31.00
2019-05-03T00:31:19.616Z,31.10
2019-05-03T00:33:51.744Z,31.10
2019-05-03T00:36:24.016Z,31.10
2019-05-03T00:38:55.781Z,31.00
2019-05-03T00:41:26.844Z,31.00
2019-05-03T00:43:57.406Z,31.00
2019-05-03T00:46:28.052Z,31.00
2019-05-03T00:48:58.813Z,31.00
2019-05-03T00:51:31.806Z,31.10
2019-05-03T00:54:03.303Z,31.00
2019-05-03T00:56:34.574Z,31.10
2019-05-03T00:59:05.245Z,31.10
2019-05-03T01:01:35.638Z,31.10
2019-05-03T01:04:06.771Z,31.10
2019-05-03T01:06:37.168Z,31.10
2019-05-03T01:09:11.743Z,31.10
2019-05-03T01:11:41.839Z,31.10
2019-05-03T01:14:13.550Z,31.10
2019-05-03T01:16:44.678Z,31.10
2019-05-03T01:19:15.091Z,31.10
2019-05-03T01:21:46.965Z,31.20
2019-05-03T01:24:18.340Z,31.30
2019-05-03T01:26:49.015Z,31.30
2019-05-03T01:29:19.402Z,31.30
2019-05-03T01:31:49.844Z,31.40
2019-05-03T01:34:21.785Z,31.40
2019-05-03T01:36:52.513Z,31.50
2019-05-03T01:39:23.645Z,31.50
2019-05-03T01:41:56.346Z,31.60
2019-05-03T01:44:27.689Z,31.60
2019-05-03T01:46:59.777Z,31.60
2019-05-03T01:49:34.976Z,31.60
2019-05-03T01:52:12.903Z,31.70
2019-05-03T01:54:44.670Z,31.70
2019-05-03T01:57:16.164Z,31.90
2019-05-03T01:59:48.285Z,31.90
2019-05-03T02:02:32.846Z,32.10
2019-05-03T02:05:17.613Z,32.10
2019-05-03T02:07:51.968Z,32.10
2019-05-03T02:10:26.873Z,32.10
2019-05-03T02:12:58.250Z,32.20
2019-05-03T02:15:29.056Z,32.30
2019-05-03T02:18:02.516Z,32.30
2019-05-03T02:20:33.589Z,32.30
2019-05-03T02:23:04.284Z,32.20
2019-05-03T02:25:35.862Z,32.30
2019-05-03T02:28:06.537Z,32.30
2019-05-03T02:33:27.943Z,32.40
2019-05-03T02:35:58.337Z,32.30
2019-05-03T02:38:30.492Z,32.40
2019-05-03T02:41:04.697Z,32.40
2019-05-03T02:43:37.672Z,32.40
2019-05-03T02:46:18.896Z,32.40
2019-05-03T02:48:57.102Z,32.40
2019-05-03T02:51:28.507Z,32.50
2019-05-03T02:53:59.314Z,32.60
2019-05-03T02:56:30.687Z,32.60
2019-05-03T02:59:06.002Z,32.70
2019-05-03T03:01:35.786Z,32.80
2019-05-03T03:04:09.487Z,32.80
2019-05-03T03:06:45.473Z,32.80
2019-05-03T03:09:36.144Z,32.90
2019-05-03T03:12:08.064Z,33.00
2019-05-03T03:14:42.629Z,32.90
2019-05-03T03:17:17.401Z,33.00
2019-05-03T03:19:49.740Z,33.00
2019-05-03T03:22:25.669Z,33.10
2019-05-03T03:24:56.852Z,33.10
2019-05-03T03:27:32.698Z,33.10
2019-05-03T03:30:32.524Z,33.20
2019-05-03T03:33:08.623Z,33.20
2019-05-03T03:35:40.575Z,33.30
2019-05-03T03:38:15.338Z,33.40
2019-05-03T03:40:55.528Z,33.40
2019-05-03T03:43:20.871Z,33.50
2019-05-03T03:45:55.556Z,33.50
2019-05-03T03:51:15.843Z,33.50
2019-05-03T03:53:48.210Z,33.50
2019-05-03T03:56:21.139Z,33.60
2019-05-03T03:58:57.428Z,33.70
2019-05-03T04:01:29.496Z,33.70
2019-05-03T04:04:01.343Z,33.80
2019-05-03T04:06:46.555Z,33.80
2019-05-03T04:09:19.065Z,33.80
2019-05-03T04:12:11.480Z,33.70
2019-05-03T04:14:58.804Z,33.70
2019-05-03T04:17:48.647Z,33.70
2019-05-03T04:20:20.481Z,33.80
2019-05-03T04:22:50.850Z,33.90
2019-05-03T04:25:21.610Z,33.90
2019-05-03T04:27:55.783Z,33.90
2019-05-03T04:30:28.342Z,33.90
2019-05-03T04:32:59.763Z,34.00
2019-05-03T04:38:20.134Z,34.20
2019-05-03T04:40:50.530Z,34.20
2019-05-03T04:43:21.634Z,34.30
2019-05-03T04:46:06.682Z,34.40
2019-05-03T04:48:39.672Z,34.40
2019-05-03T04:51:10.812Z,34.40
2019-05-03T04:53:45.447Z,34.40
2019-05-03T04:56:17.668Z,34.50
2019-05-03T04:58:48.083Z,34.60
2019-05-03T05:01:19.222Z,34.70
2019-05-03T05:03:50.125Z,34.70
2019-05-03T05:06:21.255Z,34.90
2019-05-03T05:08:52.000Z,35.00
2019-05-03T05:11:26.110Z,35.00
2019-05-03T05:13:56.190Z,35.00
2019-05-03T05:16:27.037Z,35.00
2019-05-03T05:19:05.293Z,35.00
2019-05-03T05:21:39.063Z,35.00
2019-05-03T05:24:15.170Z,35.10
2019-05-03T05:26:55.567Z,35.20
2019-05-03T05:29:31.752Z,35.30
2019-05-03T05:32:02.311Z,35.30
2019-05-03T05:34:34.928Z,35.20
2019-05-03T05:37:05.695Z,35.30
2019-05-03T05:39:36.376Z,35.30
2019-05-03T05:42:07.984Z,35.30
2019-05-03T05:44:38.779Z,35.30
2019-05-03T05:47:11.872Z,35.30
2019-05-03T05:49:47.256Z,35.30
2019-05-03T05:52:16.940Z,35.40
2019-05-03T05:54:49.092Z,35.50
2019-05-03T05:57:37.272Z,35.60
2019-05-03T06:00:11.620Z,35.60
2019-05-03T06:02:44.693Z,35.60
2019-05-03T06:05:16.240Z,35.50
2019-05-03T06:07:55.076Z,35.40
2019-05-03T06:13:42.040Z,35.40
2019-05-03T06:16:15.498Z,35.40
2019-05-03T06:18:54.756Z,35.40
2019-05-03T06:24:34.984Z,35.70
2019-05-03T06:27:24.499Z,35.70
2019-05-03T06:29:57.017Z,35.70
2019-05-03T06:32:30.344Z,35.90
2019-05-03T06:35:02.317Z,35.90
2019-05-03T06:37:35.414Z,35.90
2019-05-03T06:40:09.915Z,35.90
2019-05-03T06:42:51.547Z,36.00
2019-05-03T06:45:15.081Z,36.10
2019-05-03T06:47:49.777Z,36.20
2019-05-03T06:50:19.597Z,36.30
2019-05-03T06:52:49.997Z,36.30
2019-05-03T06:55:20.642Z,36.40
2019-05-03T06:57:54.520Z,36.20
2019-05-03T07:00:32.468Z,36.10
2019-05-03T07:03:04.906Z,36.10
2019-05-03T07:05:36.798Z,36.10
2019-05-03T07:08:15.254Z,36.20
2019-05-03T07:10:50.678Z,36.30
2019-05-03T07:13:20.096Z,36.30
2019-05-03T07:15:50.475Z,36.30
2019-05-03T07:18:20.861Z,36.30
2019-05-03T07:20:57.064Z,36.30
2019-05-03T07:23:27.701Z,36.30
2019-05-03T07:26:00.152Z,36.30
2019-05-03T07:28:45.918Z,36.40
2019-05-03T07:31:14.944Z,36.40
2019-05-03T07:33:46.360Z,36.60
2019-05-03T07:36:16.758Z,36.60
2019-05-03T07:38:48.545Z,36.60
2019-05-03T07:41:20.044Z,36.60
2019-05-03T07:43:51.460Z,36.60
2019-05-03T07:46:24.580Z,36.60
2019-05-03T07:49:01.881Z,36.60
2019-05-03T07:51:27.815Z,36.60
2019-05-03T07:53:58.476Z,36.60
2019-05-03T07:56:39.621Z,36.70
2019-05-03T07:59:10.040Z,36.70
2019-05-03T08:01:45.595Z,36.70
2019-05-03T08:04:16.203Z,36.80
2019-05-03T08:06:46.596Z,36.80
2019-05-03T08:09:17.046Z,36.80
2019-05-03T08:11:47.792Z,36.60
2019-05-03T08:14:18.326Z,36.60
2019-05-03T08:16:49.872Z,36.50
2019-05-03T08:19:23.322Z,36.30
2019-05-03T08:21:52.181Z,36.10
2019-05-03T08:24:22.622Z,36.10
2019-05-03T08:26:53.156Z,36.00
2019-05-03T08:29:26.699Z,36.00
2019-05-03T08:31:58.512Z,35.90
2019-05-03T08:34:40.351Z,35.80
2019-05-03T08:37:12.241Z,35.70
2019-05-03T08:39:44.735Z,35.70
2019-05-03T08:42:25.443Z,35.60
2019-05-03T08:44:55.908Z,35.50
2019-05-03T08:47:27.131Z,35.30
2019-05-03T08:49:58.347Z,35.30
2019-05-03T08:52:28.863Z,35.20
2019-05-03T08:54:59.243Z,35.20
2019-05-03T08:57:29.681Z,35.20
2019-05-03T09:00:00.078Z,35.10
2019-05-03T09:02:34.463Z,35.00
2019-05-03T09:05:05.233Z,35.00
2019-05-03T09:07:36.027Z,34.90
2019-05-03T09:10:16.843Z,34.90
2019-05-03T09:13:03.255Z,34.90
2019-05-03T09:15:32.493Z,34.90
2019-05-03T09:18:04.775Z,34.90
2019-05-03T09:20:36.717Z,34.80
2019-05-03T09:23:27.525Z,34.90
2019-05-03T09:25:57.926Z,34.90
2019-05-03T09:28:29.253Z,34.80
2019-05-03T09:30:59.972Z,34.80
2019-05-03T09:33:31.760Z,34.80
2019-05-03T09:36:02.148Z,34.80
2019-05-03T09:38:34.867Z,34.70
2019-05-03T09:41:06.016Z,34.60
2019-05-03T09:43:36.568Z,34.60
2019-05-03T09:46:07.065Z,34.60
2019-05-03T09:48:38.160Z,34.50
2019-05-03T09:51:08.618Z,34.50
2019-05-03T09:53:50.593Z,34.50
2019-05-03T09:56:22.489Z,34.50
2019-05-03T09:58:53.165Z,34.50
2019-05-03T10:01:25.572Z,34.50
2019-05-03T10:03:56.098Z,34.50
2019-05-03T10:06:26.472Z,34.50
2019-05-03T10:08:57.556Z,34.50
2019-05-03T10:11:28.252Z,34.30
2019-05-03T10:13:59.208Z,34.40
2019-05-03T10:16:31.020Z,34.30
2019-05-03T10:19:01.409Z,34.30
2019-05-03T10:21:35.447Z,34.30
2019-05-03T10:24:10.100Z,34.30
2019-05-03T10:26:41.568Z,34.40
2019-05-03T10:29:12.018Z,34.40
2019-05-03T10:31:56.028Z,34.30
2019-05-03T10:34:26.608Z,34.30
2019-05-03T10:36:57.060Z,34.30
2019-05-03T10:39:29.698Z,34.30
2019-05-03T10:42:04.675Z,34.10
2019-05-03T10:44:35.807Z,34.00
2019-05-03T10:47:07.061Z,34.00
2019-05-03T10:49:37.812Z,33.90
2019-05-03T10:52:09.641Z,34.00
2019-05-03T10:54:41.215Z,33.90
2019-05-03T10:57:12.994Z,33.90
2019-05-03T10:59:44.985Z,33.80
2019-05-03T11:02:25.234Z,33.70
2019-05-03T11:04:57.032Z,33.70
2019-05-03T11:07:27.508Z,33.70
2019-05-03T11:09:58.296Z,33.60
2019-05-03T11:12:29.573Z,33.60
2019-05-03T11:15:01.624Z,33.50
2019-05-03T11:17:34.821Z,33.50
2019-05-03T11:20:06.512Z,33.40
2019-05-03T11:22:56.410Z,33.30
2019-05-03T11:25:26.499Z,33.30
2019-05-03T11:27:57.967Z,33.30
2019-05-03T11:30:28.481Z,33.30
2019-05-03T11:33:09.470Z,33.30
2019-05-03T11:35:41.475Z,33.30
2019-05-03T11:38:18.315Z,33.20
2019-05-03T11:40:50.247Z,33.10
2019-05-03T11:43:22.060Z,33.10
2019-05-03T11:48:42.445Z,33.10
2019-05-03T11:51:15.080Z,33.00
2019-05-03T11:53:45.132Z,33.00
2019-05-03T11:56:17.341Z,33.00
2019-05-03T11:58:48.245Z,32.90
2019-05-03T12:01:20.917Z,32.90
2019-05-03T12:03:51.496Z,32.90
2019-05-03T12:06:21.896Z,32.90
2019-05-03T12:08:52.278Z,32.90
2019-05-03T12:11:30.430Z,32.90
2019-05-03T12:14:15.159Z,32.90
2019-05-03T12:17:18.211Z,32.90
2019-05-03T12:19:42.027Z,32.90
2019-05-03T12:22:13.303Z,32.90
2019-05-03T12:24:45.759Z,32.70
2019-05-03T12:27:16.624Z,32.70
2019-05-03T12:29:47.160Z,32.80
2019-05-03T12:32:17.561Z,32.90
2019-05-03T12:34:48.016Z,32.90
2019-05-03T12:37:21.229Z,32.80
2019-05-03T12:39:51.694Z,32.70
2019-05-03T12:42:22.230Z,32.70
2019-05-03T12:44:55.156Z,32.70
2019-05-03T12:47:25.749Z,32.70
2019-05-03T12:50:16.903Z,32.80
2019-05-03T12:52:50.876Z,32.80
2019-05-03T12:55:21.507Z,32.70
2019-05-03T12:57:51.977Z,32.70
2019-05-03T13:00:40.897Z,32.60
2019-05-03T13:03:12.736Z,32.70
2019-05-03T13:05:44.894Z,32.70
2019-05-03T13:08:36.309Z,32.70
2019-05-03T13:11:08.255Z,32.70
2019-05-03T13:16:32.785Z,32.60
2019-05-03T13:19:08.873Z,32.60
2019-05-03T13:42:14.913Z,32.40
2019-05-03T13:44:48.261Z,32.40
2019-05-03T13:47:18.736Z,32.40
2019-05-03T13:49:51.772Z,32.40
2019-05-03T13:52:22.211Z,32.40
2019-05-03T13:54:54.517Z,32.30
2019-05-03T13:57:26.766Z,32.30
2019-05-03T13:59:57.735Z,32.30
2019-05-03T14:05:29.853Z,32.30
2019-05-03T14:08:05.021Z,32.30
2019-05-03T14:10:36.156Z,32.20
2019-05-03T14:13:06.987Z,32.20
2019-05-03T14:15:40.332Z,32.20
2019-05-03T14:18:18.897Z,32.20
2019-05-03T14:24:08.052Z,32.20
2019-05-03T14:26:41.950Z,32.10
2019-05-03T14:39:00.149Z,32.00
2019-05-03T14:42:02.371Z,32.00
2019-05-03T14:44:43.144Z,32.20
2019-05-03T14:47:21.065Z,32.10
2019-05-03T14:50:11.602Z,32.20
2019-05-03T15:02:47.737Z,32.00
2019-05-03T15:05:55.027Z,32.00
2019-05-03T15:22:59.352Z,31.90
2019-05-03T15:25:29.986Z,31.90
2019-05-03T15:28:02.082Z,31.90
2019-05-03T15:30:34.986Z,31.90
2019-05-03T15:33:05.212Z,31.90
2019-05-03T15:35:40.349Z,31.90
2019-05-03T15:38:11.171Z,31.80
2019-05-03T15:40:42.764Z,31.90
2019-05-03T15:43:21.109Z,31.90
2019-05-03T15:45:55.103Z,31.90
2019-05-03T15:48:26.772Z,31.90
2019-05-03T15:50:59.099Z,31.70
2019-05-03T15:53:29.436Z,31.70
2019-05-03T15:56:02.473Z,31.70
2019-05-03T15:58:36.454Z,31.90
2019-05-03T16:01:08.304Z,31.90
2019-05-03T16:03:38.698Z,31.90
2019-05-03T16:06:10.526Z,31.80
2019-05-03T16:08:41.364Z,31.80
2019-05-03T16:11:12.141Z,31.90
2019-05-03T16:13:44.667Z,31.80
2019-05-03T16:16:15.374Z,31.80
2019-05-03T16:18:52.125Z,31.90
2019-05-03T16:21:22.927Z,31.90
2019-05-03T16:23:55.440Z,31.90
2019-05-03T16:26:25.836Z,31.90
2019-05-03T16:28:59.910Z,31.90
2019-05-03T16:31:30.677Z,31.80
2019-05-03T16:34:04.179Z,31.80
2019-05-03T16:36:36.895Z,31.70
2019-05-03T16:39:08.295Z,31.70
2019-05-03T16:41:40.212Z,31.80
2019-05-03T16:44:10.882Z,31.70
2019-05-03T16:46:41.672Z,31.70
2019-05-03T16:49:12.311Z,31.70
2019-05-03T16:54:35.063Z,31.80
2019-05-03T16:57:06.092Z,31.70
2019-05-03T16:59:37.859Z,31.70
2019-05-03T17:02:08.524Z,31.70
2019-05-03T17:07:51.122Z,31.80
2019-05-03T17:10:26.458Z,31.70
2019-05-03T17:12:57.274Z,31.70
2019-05-03T17:15:30.633Z,31.60
2019-05-03T17:18:01.088Z,31.70
2019-05-03T17:20:31.878Z,31.60
2019-05-03T17:23:04.524Z,31.70
2019-05-03T17:25:35.170Z,31.60
2019-05-03T17:28:07.345Z,31.70
2019-05-03T17:30:38.005Z,31.70
2019-05-03T17:33:08.645Z,31.70
2019-05-03T17:35:39.295Z,31.60
2019-05-03T17:38:10.797Z,31.60
2019-05-03T17:40:59.475Z,31.60
2019-05-03T17:43:49.754Z,31.60
2019-05-03T17:46:20.542Z,31.60
2019-05-03T17:48:51.278Z,31.60
2019-05-03T17:51:41.604Z,31.60
2019-05-03T17:54:16.275Z,31.60
2019-05-03T17:57:04.584Z,31.60
2019-05-03T17:59:52.516Z,31.60
2019-05-03T18:02:24.563Z,31.70
2019-05-03T18:05:14.661Z,31.70
2019-05-03T18:07:56.098Z,31.60
2019-05-03T18:10:27.996Z,31.70
2019-05-03T18:12:58.756Z,31.60
2019-05-03T18:15:29.516Z,31.60
2019-05-03T18:18:00.303Z,31.60
2019-05-03T18:20:31.018Z,31.60
2019-05-03T18:23:02.489Z,31.60
2019-05-03T18:25:33.058Z,31.60
2019-05-03T18:28:03.958Z,31.50
2019-05-03T18:30:34.957Z,31.50
2019-05-03T18:33:05.662Z,31.60
2019-05-03T18:35:36.404Z,31.60
2019-05-03T18:38:08.347Z,31.50
2019-05-03T18:40:40.288Z,31.50
2019-05-03T18:43:15.349Z,31.60
2019-05-03T18:46:14.306Z,31.60
2019-05-03T18:48:45.601Z,31.60
2019-05-03T18:51:16.283Z,31.50
2019-05-03T18:53:47.017Z,31.60
2019-05-03T18:56:17.598Z,31.60
2019-05-03T18:58:48.260Z,31.60
2019-05-03T19:01:25.852Z,31.50
2019-05-03T19:03:57.881Z,31.60
2019-05-03T19:06:28.529Z,31.60
2019-05-03T19:09:21.191Z,31.50
2019-05-03T19:12:15.280Z,31.50
2019-05-03T19:14:46.252Z,31.60
2019-05-03T19:17:35.532Z,31.50
2019-05-03T19:20:08.729Z,31.50
2019-05-03T19:22:39.579Z,31.50
2019-05-03T19:25:10.409Z,31.40
2019-05-03T19:27:41.184Z,31.40
2019-05-03T19:30:14.757Z,31.40
2019-05-03T19:32:47.548Z,31.40
2019-05-03T19:35:18.333Z,31.30
2019-05-03T19:37:49.940Z,31.30
2019-05-03T19:40:20.651Z,31.30
2019-05-03T19:42:52.308Z,31.30
2019-05-03T19:45:24.838Z,31.30
2019-05-03T19:47:55.378Z,31.40
2019-05-03T19:50:27.258Z,31.40
2019-05-03T19:53:12.056Z,31.40
2019-05-03T19:55:50.670Z,31.40
2019-05-03T19:58:21.627Z,31.30
2019-05-03T20:00:59.295Z,31.30
2019-05-03T20:03:54.552Z,31.40
2019-05-03T20:06:30.154Z,31.30
2019-05-03T20:09:02.456Z,31.20
2019-05-03T20:11:34.886Z,31.30
2019-05-03T20:14:05.734Z,31.20
2019-05-03T20:16:37.850Z,31.20
2019-05-03T20:19:17.671Z,31.30
2019-05-03T20:21:40.760Z,31.20
2019-05-03T20:24:11.466Z,31.30
2019-05-03T20:26:44.953Z,31.30
2019-05-03T20:29:16.004Z,31.20
2019-05-03T20:31:47.100Z,31.20
2019-05-03T20:34:17.831Z,31.20
2019-05-03T20:36:48.479Z,31.20
2019-05-03T20:39:19.095Z,31.10
2019-05-03T20:41:49.735Z,31.20
2019-05-03T20:44:21.841Z,31.20
2019-05-03T20:46:55.022Z,31.20
2019-05-03T20:49:25.872Z,31.20
2019-05-03T20:51:56.552Z,31.10
2019-05-03T20:54:27.243Z,31.10
2019-05-03T20:56:58.054Z,31.10
2019-05-03T20:59:28.618Z,31.10
2019-05-03T21:01:59.327Z,31.10
2019-05-03T21:04:30.113Z,31.10
2019-05-03T21:07:04.699Z,31.10
2019-05-03T21:09:35.408Z,31.10
2019-05-03T21:12:08.801Z,31.10
2019-05-03T21:14:40.313Z,31.00
2019-05-03T21:17:12.203Z,31.10
2019-05-03T21:19:44.732Z,31.00
2019-05-03T21:22:17.042Z,31.00
2019-05-03T21:24:49.299Z,31.00
2019-05-03T21:27:20.684Z,31.00
2019-05-03T21:29:55.403Z,31.00
2019-05-03T21:32:26.136Z,31.00
2019-05-03T21:35:08.175Z,31.00
2019-05-03T21:37:38.931Z,31.00
2019-05-03T21:40:09.708Z,31.00
2019-05-03T21:42:41.037Z,31.00
2019-05-03T21:45:15.036Z,31.00
2019-05-03T21:47:54.597Z,31.00
2019-05-03T21:50:25.081Z,31.00
2019-05-03T21:52:57.492Z,31.00
2019-05-03T21:55:30.790Z,31.00
2019-05-03T21:58:01.522Z,30.90
2019-05-03T22:00:50.723Z,31.00
2019-05-03T22:03:21.568Z,31.10
2019-05-03T22:05:55.389Z,31.00
2019-05-03T22:08:24.838Z,31.00
2019-05-03T22:10:55.633Z,31.00
2019-05-03T22:13:26.668Z,31.00
2019-05-03T22:16:04.946Z,31.00
2019-05-03T22:18:37.154Z,31.00
2019-05-03T22:21:09.317Z,31.00
2019-05-03T22:23:45.269Z,30.90
2019-05-03T22:26:16.303Z,31.00
2019-05-03T22:28:46.956Z,31.00
2019-05-03T22:31:18.320Z,31.00
2019-05-03T22:33:50.551Z,31.00
2019-05-03T22:36:24.474Z,30.90
2019-05-03T22:38:54.701Z,30.90
2019-05-03T22:41:25.480Z,30.90
2019-05-03T22:43:56.877Z,30.90
2019-05-03T22:46:27.448Z,30.90
2019-05-03T22:48:57.973Z,30.90
2019-05-03T22:51:29.380Z,30.80
2019-05-03T22:54:00.091Z,30.90
2019-05-03T22:56:31.339Z,30.80
2019-05-03T22:59:05.334Z,30.80
2019-05-03T23:01:35.355Z,30.80
2019-05-03T23:04:06.209Z,30.80
2019-05-03T23:06:37.180Z,30.80
2019-05-03T23:09:08.843Z,30.80
2019-05-03T23:11:40.018Z,30.80
2019-05-03T23:14:11.827Z,30.80
2019-05-03T23:16:44.597Z,30.80
2019-05-03T23:19:15.340Z,30.80
2019-05-03T23:21:50.397Z,30.80
2019-05-03T23:24:21.674Z,30.80
2019-05-03T23:26:52.476Z,30.80
2019-05-03T23:29:23.124Z,30.80
2019-05-03T23:32:15.097Z,30.80
2019-05-03T23:34:46.428Z,30.80
2019-05-03T23:37:17.867Z,30.80
2019-05-03T23:40:08.701Z,30.80
2019-05-03T23:42:39.517Z,30.80
2019-05-03T23:45:10.144Z,30.80
2019-05-03T23:47:42.356Z,30.80
2019-05-03T23:50:17.143Z,30.80
2019-05-03T23:52:49.801Z,30.80
2019-05-03T23:55:28.212Z,30.80
2019-05-03T23:57:59.584Z,30.80
